createdAt,value
2022-08-27T00:02:09.876Z,20.15
2022-08-27T00:04:38.726Z,20.11
2022-08-27T00:07:08.433Z,20.08
2022-08-27T00:09:37.454Z,20.04
2022-08-27T00:12:06.150Z,20.02
2022-08-27T00:14:35.411Z,19.98
2022-08-27T00:17:05.802Z,19.97
2022-08-27T00:19:36.184Z,19.94
2022-08-27T00:22:08.801Z,19.92
2022-08-27T00:24:38.527Z,19.90
2022-08-27T00:27:18.085Z,19.85
2022-08-27T00:29:48.108Z,19.82
2022-08-27T00:32:17.302Z,19.78
2022-08-27T00:34:45.662Z,19.75
2022-08-27T00:37:14.091Z,19.74
2022-08-27T00:39:42.164Z,19.73
2022-08-27T00:42:10.572Z,19.69
2022-08-27T00:44:39.086Z,19.69
2022-08-27T00:47:17.625Z,19.67
2022-08-27T00:49:53.333Z,19.64
2022-08-27T00:52:34.786Z,19.60
2022-08-27T00:55:20.863Z,19.54
2022-08-27T00:58:03.206Z,19.52
2022-08-27T01:00:34.196Z,19.49
2022-08-27T01:03:02.281Z,19.49
2022-08-27T01:05:30.673Z,19.46
2022-08-27T01:08:04.622Z,19.40
2022-08-27T01:10:32.793Z,19.33
2022-08-27T01:13:00.976Z,19.29
2022-08-27T01:15:30.709Z,19.23
2022-08-27T01:17:59.943Z,19.18
2022-08-27T01:20:35.242Z,19.15
2022-08-27T01:23:25.637Z,19.12
2022-08-27T01:25:53.665Z,19.08
2022-08-27T01:28:22.798Z,19.03
2022-08-27T01:30:52.012Z,18.98
2022-08-27T01:33:22.040Z,18.92
2022-08-27T01:35:52.669Z,18.84
2022-08-27T01:38:30.626Z,18.78
2022-08-27T01:41:01.245Z,18.75
2022-08-27T01:43:31.560Z,18.74
2022-08-27T01:45:59.670Z,18.74
2022-08-27T01:48:27.672Z,18.73
2022-08-27T01:50:56.697Z,18.68
2022-08-27T01:53:27.138Z,18.65
2022-08-27T01:55:56.394Z,18.64
2022-08-27T01:58:30.744Z,18.62
2022-08-27T02:01:03.461Z,18.57
2022-08-27T02:03:32.820Z,18.52
2022-08-27T02:06:06.307Z,18.48
2022-08-27T02:08:34.562Z,18.45
2022-08-27T02:11:03.001Z,18.42
2022-08-27T02:13:31.001Z,18.38
2022-08-27T02:15:58.968Z,18.33
2022-08-27T02:18:27.058Z,18.29
2022-08-27T02:20:55.037Z,18.24
2022-08-27T02:23:23.102Z,18.20
2022-08-27T02:25:51.352Z,18.17
2022-08-27T02:28:19.446Z,18.14
2022-08-27T02:30:47.392Z,18.12
2022-08-27T02:33:15.803Z,18.08
2022-08-27T02:35:44.530Z,18.06
2022-08-27T02:38:14.299Z,18.04
2022-08-27T02:40:42.964Z,18.02
2022-08-27T02:43:15.998Z,18.00
2022-08-27T02:45:52.145Z,18.01
2022-08-27T02:48:20.901Z,18.00
2022-08-27T02:50:48.932Z,18.00
2022-08-27T02:53:19.077Z,17.99
2022-08-27T02:55:47.941Z,17.98
2022-08-27T02:58:17.622Z,17.96
2022-08-27T03:00:45.891Z,17.94
2022-08-27T03:03:14.082Z,17.91
2022-08-27T03:05:42.417Z,17.88
2022-08-27T03:08:10.842Z,17.83
2022-08-27T03:10:39.005Z,17.78
2022-08-27T03:13:07.092Z,17.74
2022-08-27T03:15:35.073Z,17.73
2022-08-27T03:18:22.031Z,17.72
2022-08-27T03:20:55.050Z,17.70
2022-08-27T03:23:25.615Z,17.67
2022-08-27T03:26:03.022Z,17.63
2022-08-27T03:28:35.794Z,17.59
2022-08-27T03:31:07.868Z,17.57
2022-08-27T03:33:38.944Z,17.55
2022-08-27T03:36:09.185Z,17.54
2022-08-27T03:38:38.250Z,17.54
2022-08-27T03:41:07.525Z,17.54
2022-08-27T03:43:35.833Z,17.55
2022-08-27T03:46:03.939Z,17.56
2022-08-27T03:48:32.950Z,17.59
2022-08-27T03:51:06.852Z,17.59
2022-08-27T03:53:36.667Z,17.60
2022-08-27T03:56:06.510Z,17.62
2022-08-27T03:58:36.231Z,17.62
2022-08-27T04:01:06.358Z,17.63
2022-08-27T04:03:35.518Z,17.65
2022-08-27T04:06:04.200Z,17.69
2022-08-27T04:08:32.139Z,17.71
2022-08-27T04:11:00.330Z,17.74
2022-08-27T04:13:28.265Z,17.77
2022-08-27T04:15:57.187Z,17.79
2022-08-27T04:18:25.277Z,17.80
2022-08-27T04:20:53.262Z,17.81
2022-08-27T04:23:21.945Z,17.81
2022-08-27T04:25:50.757Z,17.83
2022-08-27T04:28:18.818Z,17.87
2022-08-27T04:30:47.491Z,17.93
2022-08-27T04:33:15.574Z,17.99
2022-08-27T04:35:43.799Z,18.02
2022-08-27T04:38:12.473Z,18.08
2022-08-27T04:40:59.104Z,18.14
2022-08-27T04:43:28.965Z,18.21
2022-08-27T04:45:57.397Z,18.29
2022-08-27T04:48:25.999Z,18.38
2022-08-27T04:50:54.101Z,18.46
2022-08-27T04:53:22.535Z,18.52
2022-08-27T04:55:53.625Z,18.59
2022-08-27T04:58:23.197Z,18.67
2022-08-27T05:00:54.426Z,18.76
2022-08-27T05:03:24.431Z,18.84
2022-08-27T05:05:54.492Z,18.91
2022-08-27T05:08:22.670Z,18.98
2022-08-27T05:10:51.602Z,19.08
2022-08-27T05:13:23.889Z,19.20
2022-08-27T05:16:00.379Z,19.34
2022-08-27T05:18:28.632Z,19.56
2022-08-27T05:20:57.572Z,20.00
2022-08-27T05:23:28.318Z,20.79
2022-08-27T05:25:57.752Z,21.72
2022-08-27T05:28:28.303Z,22.61
2022-08-27T05:31:05.395Z,23.44
2022-08-27T05:33:34.395Z,24.22
2022-08-27T05:36:02.570Z,24.86
2022-08-27T05:38:31.455Z,25.40
2022-08-27T05:41:21.140Z,25.93
2022-08-27T05:43:50.520Z,26.48
2022-08-27T05:46:22.557Z,26.87
2022-08-27T05:49:11.358Z,27.24
2022-08-27T05:51:39.312Z,27.52
2022-08-27T05:54:11.601Z,27.69
2022-08-27T05:56:42.089Z,27.86
2022-08-27T05:59:28.903Z,28.06
2022-08-27T06:01:58.912Z,28.46
2022-08-27T06:04:30.321Z,28.85
2022-08-27T06:06:58.299Z,29.29
2022-08-27T06:09:29.665Z,29.68
2022-08-27T06:12:00.527Z,29.91
2022-08-27T06:14:28.959Z,30.18
2022-08-27T06:16:57.266Z,30.22
2022-08-27T06:19:25.322Z,30.39
2022-08-27T06:22:01.280Z,30.67
2022-08-27T06:24:41.099Z,30.90
2022-08-27T06:27:16.441Z,30.87
2022-08-27T06:29:45.002Z,30.69
2022-08-27T06:32:15.080Z,30.35
2022-08-27T06:34:43.110Z,29.89
2022-08-27T06:37:11.241Z,29.50
2022-08-27T06:39:40.549Z,29.11
2022-08-27T06:42:12.148Z,28.74
2022-08-27T06:44:40.587Z,28.47
2022-08-27T06:47:08.515Z,28.28
2022-08-27T06:49:40.343Z,28.05
2022-08-27T06:52:08.435Z,27.89
2022-08-27T06:54:37.602Z,27.77
2022-08-27T06:57:05.737Z,27.63
2022-08-27T06:59:33.671Z,27.64
2022-08-27T07:02:01.751Z,27.68
2022-08-27T07:04:32.240Z,27.65
2022-08-27T07:07:02.708Z,27.60
2022-08-27T07:09:32.756Z,27.65
2022-08-27T07:12:01.786Z,27.93
2022-08-27T07:14:34.267Z,28.28
2022-08-27T07:17:08.194Z,28.51
2022-08-27T07:19:40.693Z,28.67
2022-08-27T07:22:09.863Z,28.75
2022-08-27T07:24:38.753Z,28.75
2022-08-27T07:27:10.452Z,28.78
2022-08-27T07:29:38.566Z,28.94
2022-08-27T07:32:06.941Z,29.17
2022-08-27T07:34:35.466Z,29.35
2022-08-27T07:37:03.582Z,29.54
2022-08-27T07:39:41.703Z,29.74
2022-08-27T07:42:48.740Z,30.01
2022-08-27T07:45:17.114Z,30.16
2022-08-27T07:47:45.315Z,30.25
2022-08-27T07:50:14.218Z,30.43
2022-08-27T07:52:44.422Z,30.71
2022-08-27T07:55:13.766Z,30.99
2022-08-27T07:57:42.342Z,31.27
2022-08-27T08:00:11.483Z,31.60
2022-08-27T08:02:42.361Z,31.89
2022-08-27T08:05:13.368Z,32.20
2022-08-27T08:07:41.826Z,32.57
2022-08-27T08:10:12.289Z,32.87
2022-08-27T08:12:41.242Z,33.13
2022-08-27T08:15:11.491Z,33.38
2022-08-27T08:17:39.912Z,33.65
2022-08-27T08:20:23.757Z,33.92
2022-08-27T08:22:55.852Z,33.90
2022-08-27T08:25:24.078Z,34.04
2022-08-27T08:27:52.530Z,34.19
2022-08-27T08:30:20.876Z,34.34
2022-08-27T08:32:49.068Z,34.36
2022-08-27T08:35:18.483Z,34.39
2022-08-27T08:37:47.356Z,34.39
2022-08-27T08:40:43.407Z,34.45
2022-08-27T08:43:25.845Z,34.61
2022-08-27T08:45:56.652Z,35.04
2022-08-27T08:48:30.000Z,35.41
2022-08-27T08:51:05.779Z,35.58
2022-08-27T08:53:38.841Z,35.96
2022-08-27T08:56:12.629Z,36.24
2022-08-27T08:58:59.054Z,36.09
2022-08-27T09:01:28.150Z,36.19
2022-08-27T09:04:03.735Z,36.50
2022-08-27T09:06:52.492Z,36.83
2022-08-27T09:09:27.820Z,37.11
2022-08-27T09:12:05.942Z,37.18
2022-08-27T09:14:41.714Z,36.62
2022-08-27T09:17:14.988Z,36.48
2022-08-27T09:19:43.663Z,36.85
2022-08-27T09:22:30.259Z,37.38
2022-08-27T09:25:22.813Z,37.66
2022-08-27T09:27:57.780Z,37.57
2022-08-27T09:30:31.748Z,37.58
2022-08-27T09:33:04.607Z,37.68
2022-08-27T09:35:45.161Z,37.76
2022-08-27T09:38:29.618Z,37.78
2022-08-27T09:41:02.062Z,37.87
2022-08-27T09:43:32.266Z,38.05
2022-08-27T09:46:05.677Z,38.05
2022-08-27T09:48:37.827Z,38.04
2022-08-27T09:51:15.127Z,37.86
2022-08-27T09:53:56.161Z,38.26
2022-08-27T09:56:53.933Z,38.81
2022-08-27T09:59:50.475Z,39.37
2022-08-27T10:02:22.551Z,39.41
2022-08-27T10:04:53.508Z,39.12
2022-08-27T10:07:54.286Z,39.18
2022-08-27T10:10:30.635Z,39.89
2022-08-27T10:13:13.432Z,40.41
2022-08-27T10:15:48.967Z,40.86
2022-08-27T10:18:48.140Z,40.85
2022-08-27T10:21:30.714Z,41.47
2022-08-27T10:24:20.252Z,41.72
2022-08-27T10:27:14.444Z,41.73
2022-08-27T10:30:01.294Z,40.75
2022-08-27T10:33:06.822Z,39.63
2022-08-27T10:36:04.637Z,39.80
2022-08-27T10:38:53.591Z,40.53
2022-08-27T10:42:14.261Z,40.80
2022-08-27T10:45:15.945Z,41.12
2022-08-27T10:48:30.942Z,41.57
2022-08-27T10:51:09.334Z,41.35
2022-08-27T10:53:48.342Z,41.21
2022-08-27T10:56:32.210Z,41.13
2022-08-27T10:59:18.006Z,40.55
2022-08-27T11:02:00.462Z,40.41
2022-08-27T11:04:35.708Z,40.84
2022-08-27T11:07:24.652Z,41.28
2022-08-27T11:10:13.765Z,41.48
2022-08-27T11:12:47.175Z,41.69
2022-08-27T11:15:23.542Z,42.21
2022-08-27T11:18:21.201Z,42.34
2022-08-27T11:21:03.443Z,42.17
2022-08-27T11:23:47.913Z,42.23
2022-08-27T11:26:16.235Z,42.56
2022-08-27T11:28:51.660Z,42.96
2022-08-27T11:31:34.209Z,42.81
2022-08-27T11:34:02.822Z,41.84
2022-08-27T11:36:53.252Z,41.54
2022-08-27T11:39:37.925Z,41.29
2022-08-27T11:42:17.864Z,41.64
2022-08-27T11:44:49.703Z,41.99
2022-08-27T11:47:24.804Z,42.23
2022-08-27T11:50:01.912Z,42.33
2022-08-27T11:52:40.216Z,41.83
2022-08-27T11:55:20.305Z,41.18
2022-08-27T11:58:02.622Z,41.41
2022-08-27T12:00:38.832Z,42.17
2022-08-27T12:03:19.109Z,43.06
2022-08-27T12:05:53.336Z,43.44
2022-08-27T12:08:24.329Z,43.35
2022-08-27T12:11:24.790Z,42.49
2022-08-27T12:14:14.812Z,42.15
2022-08-27T12:17:33.427Z,42.71
2022-08-27T12:20:26.241Z,42.40
2022-08-27T12:23:32.986Z,42.76
2022-08-27T12:26:32.936Z,42.55
2022-08-27T12:29:19.424Z,42.47
2022-08-27T12:32:00.524Z,41.77
2022-08-27T12:34:29.877Z,40.77
2022-08-27T12:36:57.921Z,39.90
2022-08-27T12:39:30.134Z,39.97
2022-08-27T12:41:58.237Z,39.90
2022-08-27T12:44:29.118Z,39.39
2022-08-27T12:47:05.527Z,39.25
2022-08-27T12:49:52.621Z,39.48
2022-08-27T12:52:56.925Z,40.37
2022-08-27T12:55:37.554Z,41.60
2022-08-27T12:58:16.031Z,42.39
2022-08-27T13:01:11.797Z,42.59
2022-08-27T13:03:44.605Z,42.71
2022-08-27T13:06:34.711Z,43.30
2022-08-27T13:09:07.520Z,44.04
2022-08-27T13:11:48.258Z,43.76
2022-08-27T13:14:20.372Z,43.09
2022-08-27T13:16:57.661Z,42.18
2022-08-27T13:19:30.819Z,41.21
2022-08-27T13:22:05.802Z,39.93
2022-08-27T13:24:35.739Z,39.40
2022-08-27T13:27:06.128Z,39.48
2022-08-27T13:29:34.851Z,39.50
2022-08-27T13:32:05.884Z,38.63
2022-08-27T13:34:38.925Z,37.48
2022-08-27T13:37:23.365Z,37.07
2022-08-27T13:39:57.159Z,37.40
2022-08-27T13:42:28.229Z,37.76
2022-08-27T13:45:06.337Z,37.66
2022-08-27T13:47:45.606Z,37.31
2022-08-27T13:50:20.840Z,36.83
2022-08-27T13:53:09.039Z,36.58
2022-08-27T13:55:47.995Z,36.36
2022-08-27T13:58:23.897Z,36.16
2022-08-27T14:00:52.420Z,35.97
2022-08-27T14:03:33.056Z,36.07
2022-08-27T14:06:02.644Z,36.74
2022-08-27T14:08:34.466Z,37.93
2022-08-27T14:11:07.232Z,39.29
2022-08-27T14:13:45.829Z,40.37
2022-08-27T14:16:24.392Z,40.88
2022-08-27T14:19:06.955Z,40.77
2022-08-27T14:21:57.173Z,39.95
2022-08-27T14:24:26.501Z,38.90
2022-08-27T14:27:04.177Z,37.95
2022-08-27T14:29:32.291Z,37.00
2022-08-27T14:32:00.292Z,36.31
2022-08-27T14:34:29.042Z,35.75
2022-08-27T14:36:57.357Z,35.27
2022-08-27T14:39:26.697Z,34.88
2022-08-27T14:41:56.455Z,34.56
2022-08-27T14:44:25.913Z,34.23
2022-08-27T14:46:55.023Z,33.89
2022-08-27T14:49:34.855Z,33.61
2022-08-27T14:52:05.564Z,33.43
2022-08-27T14:54:34.663Z,33.26
2022-08-27T14:57:03.953Z,33.18
2022-08-27T14:59:33.247Z,33.53
2022-08-27T15:02:04.918Z,34.33
2022-08-27T15:04:33.334Z,35.32
2022-08-27T15:07:01.785Z,36.22
2022-08-27T15:09:30.145Z,37.60
2022-08-27T15:11:58.545Z,38.86
2022-08-27T15:14:32.937Z,39.98
2022-08-27T15:17:01.426Z,40.24
2022-08-27T15:19:31.013Z,40.78
2022-08-27T15:22:23.526Z,41.10
2022-08-27T15:24:56.491Z,41.32
2022-08-27T15:27:30.119Z,41.58
2022-08-27T15:30:10.110Z,41.81
2022-08-27T15:32:42.107Z,41.83
2022-08-27T15:35:15.727Z,41.72
2022-08-27T15:37:45.456Z,41.19
2022-08-27T15:40:16.769Z,41.15
2022-08-27T15:42:45.375Z,41.55
2022-08-27T15:45:14.792Z,41.92
2022-08-27T15:47:43.225Z,41.87
2022-08-27T15:50:11.620Z,41.16
2022-08-27T15:52:41.862Z,40.51
2022-08-27T15:55:20.298Z,40.08
2022-08-27T15:57:48.734Z,39.48
2022-08-27T16:00:17.865Z,39.30
2022-08-27T16:02:46.963Z,38.90
2022-08-27T16:05:16.850Z,37.96
2022-08-27T16:07:45.255Z,37.47
2022-08-27T16:10:17.075Z,37.43
2022-08-27T16:12:45.843Z,37.43
2022-08-27T16:15:14.250Z,37.30
2022-08-27T16:17:42.625Z,37.10
2022-08-27T16:20:13.795Z,37.16
2022-08-27T16:22:42.315Z,37.22
2022-08-27T16:25:16.500Z,37.14
2022-08-27T16:27:47.800Z,36.66
2022-08-27T16:30:15.745Z,36.18
2022-08-27T16:32:49.038Z,35.81
2022-08-27T16:35:17.388Z,35.10
2022-08-27T16:37:45.809Z,34.45
2022-08-27T16:40:15.789Z,33.85
2022-08-27T16:42:47.895Z,33.30
2022-08-27T16:45:17.951Z,32.78
2022-08-27T16:48:04.258Z,32.34
2022-08-27T16:50:35.344Z,31.95
2022-08-27T16:53:09.168Z,31.66
2022-08-27T16:55:40.530Z,31.38
2022-08-27T16:58:16.065Z,31.11
2022-08-27T17:00:46.138Z,30.86
2022-08-27T17:03:14.305Z,30.61
2022-08-27T17:05:42.795Z,30.34
2022-08-27T17:08:11.910Z,30.08
2022-08-27T17:10:47.993Z,29.86
2022-08-27T17:13:22.446Z,29.64
2022-08-27T17:15:57.067Z,29.41
2022-08-27T17:18:27.846Z,29.20
2022-08-27T17:20:59.162Z,29.00
2022-08-27T17:23:39.895Z,28.82
2022-08-27T17:26:11.899Z,28.64
2022-08-27T17:28:41.732Z,28.44
2022-08-27T17:31:14.647Z,28.29
2022-08-27T17:33:48.430Z,28.13
2022-08-27T17:36:16.988Z,27.98
2022-08-27T17:38:45.569Z,27.82
2022-08-27T17:41:34.322Z,27.69
2022-08-27T17:44:10.403Z,27.54
2022-08-27T17:46:39.066Z,27.44
2022-08-27T17:49:06.949Z,27.33
2022-08-27T17:51:36.199Z,27.22
2022-08-27T17:54:06.216Z,27.11
2022-08-27T17:56:34.384Z,26.97
2022-08-27T17:59:02.321Z,26.80
2022-08-27T18:01:32.493Z,26.64
2022-08-27T18:04:00.582Z,26.46
2022-08-27T18:06:28.872Z,26.28
2022-08-27T18:08:57.136Z,26.16
2022-08-27T18:11:26.119Z,26.04
2022-08-27T18:14:01.538Z,25.93
2022-08-27T18:16:32.993Z,25.85
2022-08-27T18:19:06.963Z,25.78
2022-08-27T18:21:35.675Z,25.70
2022-08-27T18:24:04.123Z,25.62
2022-08-27T18:26:33.930Z,25.54
2022-08-27T18:29:02.123Z,25.46
2022-08-27T18:31:32.134Z,25.37
2022-08-27T18:34:00.775Z,25.29
2022-08-27T18:36:29.322Z,25.22
2022-08-27T18:39:00.077Z,25.13
2022-08-27T18:41:31.478Z,25.04
2022-08-27T18:44:00.122Z,24.91
2022-08-27T18:46:28.333Z,24.79
2022-08-27T18:48:56.318Z,24.67
2022-08-27T18:51:24.289Z,24.53
2022-08-27T18:53:52.478Z,24.41
2022-08-27T18:56:20.858Z,24.31
2022-08-27T18:58:49.014Z,24.24
2022-08-27T19:01:25.671Z,24.15
2022-08-27T19:03:57.096Z,24.09
2022-08-27T19:06:25.815Z,24.01
2022-08-27T19:08:53.816Z,23.92
2022-08-27T19:11:21.997Z,23.82
2022-08-27T19:13:51.007Z,23.73
2022-08-27T19:16:39.287Z,23.67
2022-08-27T19:19:07.639Z,23.60
2022-08-27T19:21:35.676Z,23.55
2022-08-27T19:24:04.519Z,23.50
2022-08-27T19:26:33.108Z,23.42
2022-08-27T19:29:01.248Z,23.38
2022-08-27T19:31:31.693Z,23.35
2022-08-27T19:34:00.573Z,23.31
2022-08-27T19:36:28.618Z,23.29
2022-08-27T19:38:56.835Z,23.27
2022-08-27T19:41:27.720Z,23.24
2022-08-27T19:43:56.165Z,23.22
2022-08-27T19:46:26.334Z,23.19
2022-08-27T19:48:55.740Z,23.16
2022-08-27T19:51:23.724Z,23.12
2022-08-27T19:53:51.739Z,23.07
2022-08-27T19:56:19.717Z,23.01
2022-08-27T19:58:47.785Z,22.96
2022-08-27T20:01:16.253Z,22.92
2022-08-27T20:03:44.539Z,22.88
2022-08-27T20:06:13.189Z,22.81
2022-08-27T20:08:41.102Z,22.76
2022-08-27T20:11:09.737Z,22.67
2022-08-27T20:13:37.998Z,22.59
2022-08-27T20:16:16.803Z,22.50
2022-08-27T20:18:46.474Z,22.43
2022-08-27T20:21:14.495Z,22.38
2022-08-27T20:23:42.397Z,22.31
2022-08-27T20:26:10.368Z,22.23
2022-08-27T20:28:40.285Z,22.15
2022-08-27T20:31:08.875Z,22.08
2022-08-27T20:33:37.034Z,22.03
2022-08-27T20:36:06.511Z,21.99
2022-08-27T20:38:35.064Z,21.93
2022-08-27T20:41:03.452Z,21.88
2022-08-27T20:43:31.591Z,21.85
2022-08-27T20:46:00.273Z,21.80
2022-08-27T20:48:28.595Z,21.76
2022-08-27T20:50:56.652Z,21.70
2022-08-27T20:53:24.959Z,21.66
2022-08-27T20:55:56.758Z,21.60
2022-08-27T20:58:44.011Z,21.55
2022-08-27T21:01:12.234Z,21.49
2022-08-27T21:03:40.534Z,21.46
2022-08-27T21:06:09.209Z,21.44
2022-08-27T21:08:39.664Z,21.41
2022-08-27T21:11:15.566Z,21.35
2022-08-27T21:13:55.603Z,21.30
2022-08-27T21:16:25.718Z,21.24
2022-08-27T21:18:54.125Z,21.22
2022-08-27T21:21:22.869Z,21.19
2022-08-27T21:23:50.945Z,21.16
2022-08-27T21:26:20.413Z,21.16
2022-08-27T21:28:48.494Z,21.13
2022-08-27T21:31:25.262Z,21.10
2022-08-27T21:33:53.509Z,21.05
2022-08-27T21:36:21.827Z,21.00
2022-08-27T21:38:50.433Z,20.94
2022-08-27T21:41:18.409Z,20.88
2022-08-27T21:43:46.416Z,20.83
2022-08-27T21:46:14.665Z,20.77
2022-08-27T21:48:42.625Z,20.71
2022-08-27T21:51:13.842Z,20.66
2022-08-27T21:53:43.159Z,20.60
2022-08-27T21:56:12.257Z,20.56
2022-08-27T21:58:40.830Z,20.51
2022-08-27T22:01:08.955Z,20.50
2022-08-27T22:03:37.048Z,20.47
2022-08-27T22:06:08.596Z,20.42
2022-08-27T22:08:36.459Z,20.40
2022-08-27T22:11:05.071Z,20.36
2022-08-27T22:13:33.669Z,20.32
2022-08-27T22:16:02.185Z,20.28
2022-08-27T22:18:30.541Z,20.22
2022-08-27T22:21:00.439Z,20.15
2022-08-27T22:23:28.543Z,20.10
2022-08-27T22:25:56.688Z,20.04
2022-08-27T22:28:24.603Z,19.98
2022-08-27T22:30:52.616Z,19.91
2022-08-27T22:33:20.859Z,19.87
2022-08-27T22:35:48.875Z,19.84
2022-08-27T22:38:16.817Z,19.80
2022-08-27T22:40:44.819Z,19.76
2022-08-27T22:43:14.595Z,19.73
2022-08-27T22:45:42.576Z,19.69
2022-08-27T22:48:10.982Z,19.67
2022-08-27T22:50:39.154Z,19.61
2022-08-27T22:53:07.456Z,19.54
2022-08-27T22:55:36.287Z,19.50
2022-08-27T22:58:04.510Z,19.47
2022-08-27T23:00:36.300Z,19.41
2022-08-27T23:03:07.624Z,19.35
2022-08-27T23:05:40.482Z,19.29
2022-08-27T23:08:12.247Z,19.28
2022-08-27T23:10:42.615Z,19.25
2022-08-27T23:13:12.318Z,19.21
2022-08-27T23:15:41.348Z,19.15
2022-08-27T23:18:09.469Z,19.08
2022-08-27T23:20:37.531Z,19.04
2022-08-27T23:23:08.147Z,19.02
2022-08-27T23:25:54.816Z,18.99
2022-08-27T23:28:23.651Z,18.96
2022-08-27T23:30:51.986Z,18.93
2022-08-27T23:33:20.503Z,18.90
2022-08-27T23:35:51.594Z,18.85
2022-08-27T23:38:21.431Z,18.79
2022-08-27T23:40:50.575Z,18.74
2022-08-27T23:43:19.713Z,18.71
2022-08-27T23:45:49.346Z,18.68
2022-08-27T23:48:17.254Z,18.67
2022-08-27T23:50:45.972Z,18.65
2022-08-27T23:53:14.843Z,18.62
2022-08-27T23:55:42.866Z,18.58
2022-08-27T23:58:12.273Z,18.51
